createdAt,value
2023-05-11T00:01:17.007Z,71.91
2023-05-11T00:03:45.127Z,72.01
2023-05-11T00:06:13.679Z,72.26
2023-05-11T00:08:42.203Z,72.05
2023-05-11T00:11:11.283Z,71.57
2023-05-11T00:13:42.566Z,72.07
2023-05-11T00:16:11.583Z,71.17
2023-05-11T00:18:40.445Z,72.63
2023-05-11T00:21:11.340Z,73.80
2023-05-11T00:23:39.697Z,74.13
2023-05-11T00:26:07.525Z,74.78
2023-05-11T00:28:35.283Z,74.75
2023-05-11T00:31:09.104Z,75.93
2023-05-11T00:33:58.937Z,76.37
2023-05-11T00:36:27.133Z,76.28
2023-05-11T00:38:58.593Z,76.98
2023-05-11T00:41:31.101Z,75.27
2023-05-11T00:43:59.317Z,75.93
2023-05-11T00:46:29.392Z,77.53
2023-05-11T00:48:58.413Z,76.07
2023-05-11T00:51:28.243Z,75.47
2023-05-11T00:53:56.270Z,74.34
2023-05-11T00:56:24.296Z,73.61
2023-05-11T00:58:53.160Z,73.28
2023-05-11T01:01:23.061Z,73.19
2023-05-11T01:03:52.986Z,74.86
2023-05-11T01:06:28.357Z,75.25
2023-05-11T01:09:01.140Z,74.49
2023-05-11T01:11:34.364Z,75.15
2023-05-11T01:14:10.420Z,74.84
2023-05-11T01:16:46.846Z,75.13
2023-05-11T01:19:22.899Z,74.56
2023-05-11T01:21:52.104Z,74.38
2023-05-11T01:24:33.946Z,73.66
2023-05-11T01:27:33.986Z,74.34
2023-05-11T01:30:27.688Z,75.21
2023-05-11T01:32:56.496Z,74.54
2023-05-11T01:35:29.575Z,73.87
2023-05-11T01:37:59.800Z,72.95
2023-05-11T01:40:30.479Z,73.51
2023-05-11T01:43:08.603Z,73.79
2023-05-11T01:45:42.863Z,72.78
2023-05-11T01:48:15.098Z,72.16
2023-05-11T01:50:51.582Z,73.00
2023-05-11T01:53:22.532Z,72.46
2023-05-11T01:55:56.907Z,74.52
2023-05-11T01:58:25.761Z,74.66
2023-05-11T02:00:56.527Z,73.70
2023-05-11T02:03:25.434Z,74.98
2023-05-11T02:05:58.399Z,74.91
2023-05-11T02:08:30.390Z,77.60
2023-05-11T02:10:59.301Z,74.58
2023-05-11T02:16:13.662Z,72.11
2023-05-11T02:18:45.661Z,73.31
2023-05-11T02:21:15.544Z,72.93
2023-05-11T02:23:46.697Z,73.55
2023-05-11T02:26:17.330Z,74.08
2023-05-11T02:28:45.709Z,73.64
2023-05-11T02:31:21.002Z,71.66
2023-05-11T02:33:57.098Z,73.07
2023-05-11T02:36:28.650Z,73.38
2023-05-11T02:39:10.298Z,73.69
2023-05-11T02:41:45.110Z,71.74
2023-05-11T02:44:16.272Z,73.65
2023-05-11T02:46:48.153Z,74.49
2023-05-11T02:49:17.068Z,74.46
2023-05-11T02:51:46.412Z,76.49
2023-05-11T02:54:14.324Z,74.52
2023-05-11T02:56:42.536Z,74.24
2023-05-11T02:59:10.785Z,75.14
2023-05-11T03:01:41.948Z,74.03
2023-05-11T03:04:15.000Z,74.91
2023-05-11T03:06:43.518Z,73.95
2023-05-11T03:09:27.160Z,72.68
2023-05-11T03:11:58.219Z,72.49
2023-05-11T03:14:26.854Z,72.89
2023-05-11T03:16:56.646Z,73.81
2023-05-11T03:19:28.914Z,74.10
2023-05-11T03:21:57.912Z,72.20
2023-05-11T03:24:28.676Z,72.45
2023-05-11T03:26:57.376Z,73.28
2023-05-11T03:29:26.958Z,72.77
2023-05-11T03:31:57.041Z,71.48
2023-05-11T03:34:33.230Z,72.31
2023-05-11T03:37:04.985Z,71.57
2023-05-11T03:39:35.030Z,70.67
2023-05-11T03:42:04.402Z,71.78
2023-05-11T03:44:35.221Z,72.99
2023-05-11T03:47:06.195Z,72.18
2023-05-11T03:49:53.795Z,73.59
2023-05-11T03:52:27.933Z,71.68
2023-05-11T03:54:58.425Z,70.70
2023-05-11T03:57:30.025Z,72.08
2023-05-11T04:00:04.062Z,71.95
2023-05-11T04:02:32.458Z,72.25
2023-05-11T04:05:20.595Z,73.42
2023-05-11T04:07:50.468Z,72.20
2023-05-11T04:10:21.207Z,72.69
2023-05-11T04:12:56.116Z,74.16
2023-05-11T04:15:27.980Z,72.50
2023-05-11T04:17:55.800Z,73.13
2023-05-11T04:20:27.488Z,73.49
2023-05-11T04:22:55.605Z,74.50
2023-05-11T04:25:27.729Z,72.38
2023-05-11T04:27:57.485Z,73.38
2023-05-11T04:30:31.470Z,75.22
2023-05-11T04:32:59.770Z,76.06
2023-05-11T04:35:29.885Z,75.13
2023-05-11T04:37:57.785Z,75.91
2023-05-11T04:40:26.683Z,74.58
2023-05-11T04:42:59.041Z,74.66
2023-05-11T04:45:37.761Z,73.63
2023-05-11T04:48:07.993Z,72.32
2023-05-11T04:50:38.145Z,73.53
2023-05-11T04:53:09.168Z,76.01
2023-05-11T04:55:37.009Z,75.70
2023-05-11T04:58:10.785Z,74.02
2023-05-11T05:00:39.468Z,72.52
2023-05-11T05:03:07.992Z,72.91
2023-05-11T05:05:37.281Z,72.79
2023-05-11T05:08:07.960Z,73.03
2023-05-11T05:10:36.535Z,73.11
2023-05-11T05:13:07.675Z,74.58
2023-05-11T05:15:35.849Z,76.05
2023-05-11T05:18:03.885Z,75.10
2023-05-11T05:20:37.401Z,73.92
2023-05-11T05:23:06.972Z,73.96
2023-05-11T05:25:38.156Z,72.06
2023-05-11T05:28:08.579Z,73.48
2023-05-11T05:30:37.521Z,73.57
2023-05-11T05:33:05.790Z,72.85
2023-05-11T05:35:35.180Z,72.59
2023-05-11T05:38:09.082Z,76.44
2023-05-11T05:40:39.507Z,75.86
2023-05-11T05:43:08.854Z,76.18
2023-05-11T05:45:40.740Z,76.25
2023-05-11T05:48:12.147Z,75.51
2023-05-11T05:50:40.281Z,75.13
2023-05-11T05:53:19.818Z,74.39
2023-05-11T05:55:49.656Z,73.21
2023-05-11T05:58:20.874Z,73.24
2023-05-11T06:00:52.503Z,73.83
2023-05-11T06:03:24.854Z,75.47
2023-05-11T06:05:58.895Z,75.24
2023-05-11T06:08:28.476Z,74.34
2023-05-11T06:10:56.857Z,75.41
2023-05-11T06:13:29.661Z,75.63
2023-05-11T06:15:58.444Z,74.18
2023-05-11T06:18:26.613Z,74.29
2023-05-11T06:20:55.147Z,73.38
2023-05-11T06:23:25.991Z,74.33
2023-05-11T06:25:55.163Z,75.70
2023-05-11T06:28:26.983Z,73.89
2023-05-11T06:30:59.410Z,71.74
2023-05-11T06:33:30.618Z,70.30
2023-05-11T06:36:02.940Z,71.18
2023-05-11T06:38:34.044Z,71.82
2023-05-11T06:41:07.024Z,75.50
2023-05-11T06:43:36.085Z,73.22
2023-05-11T06:46:04.629Z,74.45
2023-05-11T06:48:34.759Z,74.48
2023-05-11T06:51:12.086Z,74.64
2023-05-11T06:53:46.349Z,72.88
2023-05-11T06:56:18.430Z,73.05
2023-05-11T06:58:51.857Z,74.36
2023-05-11T07:01:21.076Z,73.04
2023-05-11T07:03:54.180Z,72.04
2023-05-11T07:06:28.901Z,71.83
2023-05-11T07:08:57.088Z,71.54
2023-05-11T07:11:29.385Z,71.09
2023-05-11T07:14:01.905Z,71.52
2023-05-11T07:16:32.034Z,73.37
2023-05-11T07:19:03.268Z,74.71
2023-05-11T07:21:34.455Z,74.55
2023-05-11T07:24:03.189Z,73.69
2023-05-11T07:26:36.746Z,71.72
2023-05-11T07:29:06.208Z,73.70
2023-05-11T07:31:35.968Z,73.67
2023-05-11T07:34:07.507Z,71.69
2023-05-11T07:36:35.692Z,71.29
2023-05-11T07:39:06.531Z,74.14
2023-05-11T07:41:38.090Z,72.45
2023-05-11T07:44:06.952Z,71.64
2023-05-11T07:46:35.556Z,73.90
2023-05-11T07:49:15.809Z,75.91
2023-05-11T07:51:48.989Z,72.34
2023-05-11T07:54:19.481Z,73.47
2023-05-11T07:56:51.420Z,74.43
2023-05-11T07:59:20.369Z,72.17
2023-05-11T08:01:54.591Z,73.18
2023-05-11T08:04:24.250Z,72.98
2023-05-11T08:06:53.267Z,72.90
2023-05-11T08:09:23.420Z,71.98
2023-05-11T08:11:55.048Z,72.45
2023-05-11T08:14:23.686Z,72.39
2023-05-11T08:16:52.269Z,72.48
2023-05-11T08:19:21.753Z,72.75
2023-05-11T08:21:50.170Z,72.86
2023-05-11T08:24:18.728Z,70.24
2023-05-11T08:26:46.957Z,71.97
2023-05-11T08:29:16.174Z,72.67
2023-05-11T08:31:44.294Z,73.29
2023-05-11T08:34:19.002Z,74.50
2023-05-11T08:36:49.598Z,72.37
2023-05-11T08:39:28.530Z,73.74
2023-05-11T08:42:08.904Z,71.59
2023-05-11T08:44:40.548Z,70.68
2023-05-11T08:49:43.730Z,72.96
2023-05-11T08:52:19.022Z,72.99
2023-05-11T08:54:50.509Z,73.33
2023-05-11T08:57:19.751Z,74.05
2023-05-11T08:59:50.989Z,74.85
2023-05-11T09:02:23.326Z,72.00
2023-05-11T09:04:53.767Z,70.43
2023-05-11T09:07:23.391Z,72.26
2023-05-11T09:09:51.578Z,73.79
2023-05-11T09:12:20.012Z,70.73
2023-05-11T09:14:53.054Z,70.93
2023-05-11T09:17:21.179Z,74.38
2023-05-11T09:20:09.595Z,71.99
2023-05-11T09:22:43.346Z,74.45
2023-05-11T09:25:14.725Z,78.94
2023-05-11T09:27:44.197Z,76.06
2023-05-11T09:32:59.496Z,75.56
2023-05-11T09:35:39.600Z,77.26
2023-05-11T09:38:10.115Z,74.93
2023-05-11T09:40:40.172Z,74.78
2023-05-11T09:43:18.927Z,75.07
2023-05-11T09:45:52.611Z,73.75
2023-05-11T09:48:32.266Z,74.94
2023-05-11T09:51:04.946Z,76.07
2023-05-11T09:53:37.833Z,74.00
2023-05-11T09:56:07.475Z,76.56
2023-05-11T09:58:53.760Z,77.74
2023-05-11T10:01:32.879Z,77.34
2023-05-11T10:04:21.194Z,75.50
2023-05-11T10:06:54.340Z,77.57
2023-05-11T10:09:25.706Z,77.77
2023-05-11T10:11:56.429Z,79.14
2023-05-11T10:14:25.190Z,76.93
2023-05-11T10:16:59.111Z,80.17
2023-05-11T10:19:27.425Z,77.52
2023-05-11T10:21:57.455Z,76.71
2023-05-11T10:24:30.505Z,76.78
2023-05-11T10:27:01.066Z,77.24
2023-05-11T10:29:33.396Z,80.00
2023-05-11T10:32:03.643Z,76.66
2023-05-11T10:34:34.038Z,75.38
2023-05-11T10:37:02.472Z,75.41
2023-05-11T10:39:40.220Z,78.40
2023-05-11T10:42:20.758Z,76.04
2023-05-11T10:45:02.400Z,75.06
2023-05-11T10:48:03.294Z,72.87
2023-05-11T10:50:46.352Z,73.00
2023-05-11T10:53:31.151Z,74.10
2023-05-11T10:56:12.690Z,75.11
2023-05-11T10:59:32.621Z,75.09
2023-05-11T11:01:52.261Z,74.26
2023-05-11T11:04:21.904Z,72.19
2023-05-11T11:07:06.724Z,72.00
2023-05-11T11:10:24.035Z,72.19
2023-05-11T11:12:42.959Z,72.17
2023-05-11T11:15:11.785Z,75.23
2023-05-11T11:17:41.854Z,75.96
2023-05-11T11:20:48.570Z,74.27
2023-05-11T11:24:23.678Z,70.39
2023-05-11T11:26:52.280Z,73.42
2023-05-11T11:29:21.895Z,69.86
2023-05-11T11:31:50.600Z,70.18
2023-05-11T11:34:40.088Z,70.12
2023-05-11T11:37:10.518Z,67.20
2023-05-11T11:39:55.827Z,69.67
2023-05-11T11:42:43.969Z,68.01
2023-05-11T11:45:35.988Z,70.23
2023-05-11T11:48:22.876Z,68.93
2023-05-11T11:50:58.919Z,68.00
2023-05-11T11:54:07.293Z,66.02
2023-05-11T11:56:43.883Z,66.12
2023-05-11T11:59:15.022Z,66.22
2023-05-11T12:01:46.794Z,66.74
2023-05-11T12:04:42.042Z,66.69
2023-05-11T12:07:17.703Z,65.23
2023-05-11T12:09:48.965Z,64.92
2023-05-11T12:12:48.127Z,67.48
2023-05-11T12:15:25.055Z,64.47
2023-05-11T12:17:56.079Z,66.06
2023-05-11T12:20:26.433Z,65.30
2023-05-11T12:22:56.686Z,64.92
2023-05-11T12:25:30.810Z,65.12
2023-05-11T12:28:04.620Z,64.24
2023-05-11T12:30:33.513Z,66.48
2023-05-11T12:33:13.755Z,65.42
2023-05-11T12:35:46.926Z,66.64
2023-05-11T12:38:21.971Z,64.66
2023-05-11T12:40:51.969Z,63.55
2023-05-11T12:43:23.933Z,64.52
2023-05-11T12:45:52.065Z,63.05
2023-05-11T12:48:20.495Z,62.53
2023-05-11T12:50:53.546Z,63.65
2023-05-11T12:53:22.231Z,64.21
2023-05-11T12:56:06.908Z,65.12
2023-05-11T12:58:43.066Z,64.05
2023-05-11T13:01:11.180Z,63.30
2023-05-11T13:03:50.098Z,62.30
2023-05-11T13:06:20.822Z,62.62
2023-05-11T13:08:49.151Z,63.85
2023-05-11T13:11:24.280Z,62.21
2023-05-11T13:13:54.490Z,63.70
2023-05-11T13:16:28.817Z,62.42
2023-05-11T13:18:59.324Z,60.32
2023-05-11T13:21:29.587Z,61.30
2023-05-11T13:23:58.805Z,60.41
2023-05-11T13:26:27.770Z,61.63
2023-05-11T13:29:10.041Z,59.30
2023-05-11T13:31:45.278Z,59.61
2023-05-11T13:34:15.245Z,60.95
2023-05-11T13:36:43.701Z,60.20
2023-05-11T13:39:15.422Z,60.86
2023-05-11T13:41:55.911Z,60.56
2023-05-11T13:44:26.187Z,61.02
2023-05-11T13:46:55.916Z,60.73
2023-05-11T13:49:23.958Z,61.13
2023-05-11T13:51:53.307Z,60.38
2023-05-11T13:54:21.713Z,59.82
2023-05-11T13:56:52.209Z,58.68
2023-05-11T13:59:20.139Z,57.47
2023-05-11T14:01:49.457Z,58.03
2023-05-11T14:04:22.861Z,57.52
2023-05-11T14:06:50.825Z,59.50
2023-05-11T14:09:20.876Z,59.36
2023-05-11T14:11:50.197Z,57.75
2023-05-11T14:14:20.546Z,57.89
2023-05-11T14:16:50.413Z,58.61
2023-05-11T14:19:19.781Z,62.58
2023-05-11T14:21:51.728Z,58.12
2023-05-11T14:24:21.272Z,59.82
2023-05-11T14:26:50.526Z,60.96
2023-05-11T14:29:43.404Z,60.24
2023-05-11T14:32:08.790Z,60.63
2023-05-11T14:34:36.524Z,60.78
2023-05-11T14:37:04.373Z,59.55
2023-05-11T14:39:35.352Z,60.39
2023-05-11T14:42:04.679Z,60.84
2023-05-11T14:47:20.839Z,61.00
2023-05-11T14:49:51.628Z,60.13
2023-05-11T14:52:21.731Z,59.87
2023-05-11T14:55:00.538Z,62.37
2023-05-11T14:57:31.877Z,60.55
2023-05-11T15:00:02.232Z,60.00
2023-05-11T15:02:31.397Z,59.99
2023-05-11T15:05:01.957Z,59.36
2023-05-11T15:07:34.007Z,59.31
2023-05-11T15:10:06.382Z,59.37
2023-05-11T15:12:34.536Z,60.08
2023-05-11T15:15:06.302Z,60.66
2023-05-11T15:17:38.009Z,60.02
2023-05-11T15:20:07.398Z,60.90
2023-05-11T15:22:35.208Z,59.32
2023-05-11T15:25:03.370Z,60.32
2023-05-11T15:27:31.711Z,59.62
2023-05-11T15:30:03.875Z,59.63
2023-05-11T15:32:33.888Z,59.26
2023-05-11T15:35:09.106Z,59.10
2023-05-11T15:37:37.245Z,60.10
2023-05-11T15:40:06.727Z,59.44
2023-05-11T15:42:38.077Z,59.39
2023-05-11T15:45:09.860Z,58.94
2023-05-11T15:47:38.755Z,59.89
2023-05-11T15:50:10.846Z,60.70
2023-05-11T15:52:43.623Z,59.16
2023-05-11T15:55:13.612Z,59.09
2023-05-11T15:57:41.384Z,60.02
2023-05-11T16:00:21.099Z,61.97
2023-05-11T16:02:51.995Z,62.35
2023-05-11T16:05:27.225Z,62.88
2023-05-11T16:07:55.584Z,62.83
2023-05-11T16:10:24.718Z,63.94
2023-05-11T16:12:58.936Z,64.13
2023-05-11T16:15:29.997Z,64.94
2023-05-11T16:18:18.024Z,64.33
2023-05-11T16:20:52.751Z,64.67
2023-05-11T16:23:26.474Z,65.20
2023-05-11T16:25:56.783Z,64.97
2023-05-11T16:28:29.742Z,64.59
2023-05-11T16:30:59.330Z,65.31
2023-05-11T16:33:30.236Z,65.21
2023-05-11T16:36:00.161Z,65.05
2023-05-11T16:38:33.971Z,64.75
2023-05-11T16:41:03.670Z,64.51
2023-05-11T16:43:32.946Z,64.39
2023-05-11T16:46:02.200Z,65.34
2023-05-11T16:48:32.725Z,66.40
2023-05-11T16:51:06.464Z,66.22
2023-05-11T16:53:37.471Z,66.47
2023-05-11T16:56:07.721Z,65.77
2023-05-11T16:58:38.865Z,66.18
2023-05-11T17:01:08.802Z,66.83
2023-05-11T17:03:45.974Z,66.61
2023-05-11T17:06:20.972Z,66.86
2023-05-11T17:08:55.450Z,66.36
2023-05-11T17:11:23.801Z,66.15
2023-05-11T17:13:54.451Z,66.49
2023-05-11T17:16:23.151Z,65.91
2023-05-11T17:18:58.272Z,66.41
2023-05-11T17:21:34.124Z,67.56
2023-05-11T17:24:02.284Z,67.97
2023-05-11T17:26:43.869Z,68.70
2023-05-11T17:29:32.798Z,68.37
2023-05-11T17:32:01.319Z,68.43
2023-05-11T17:34:50.363Z,68.85
2023-05-11T17:37:31.334Z,69.23
2023-05-11T17:40:06.468Z,68.14
2023-05-11T17:42:38.676Z,69.45
2023-05-11T17:45:07.773Z,69.62
2023-05-11T17:47:39.487Z,70.19
2023-05-11T17:50:10.862Z,69.64
2023-05-11T17:52:43.334Z,70.81
2023-05-11T17:55:13.731Z,70.19
2023-05-11T17:57:42.157Z,70.14
2023-05-11T18:00:14.867Z,69.69
2023-05-11T18:02:45.243Z,69.59
2023-05-11T18:05:16.143Z,69.85
2023-05-11T18:07:47.038Z,69.83
2023-05-11T18:10:19.955Z,70.17
2023-05-11T18:12:48.909Z,70.05
2023-05-11T18:15:17.337Z,70.14
2023-05-11T18:17:49.443Z,69.78
2023-05-11T18:20:20.685Z,70.51
2023-05-11T18:22:51.220Z,70.51
2023-05-11T18:25:19.418Z,70.46
2023-05-11T18:27:56.144Z,70.79
2023-05-11T18:30:30.730Z,70.33
2023-05-11T18:33:04.060Z,70.57
2023-05-11T18:35:33.669Z,70.87
2023-05-11T18:38:04.947Z,71.12
2023-05-11T18:40:37.876Z,71.39
2023-05-11T18:43:06.097Z,71.24
2023-05-11T18:45:46.996Z,71.71
2023-05-11T18:48:15.213Z,71.86
2023-05-11T18:50:44.150Z,72.35
2023-05-11T18:53:13.467Z,73.25
2023-05-11T18:55:52.616Z,74.18
2023-05-11T18:58:24.667Z,74.37
2023-05-11T19:00:55.393Z,75.18
2023-05-11T19:03:26.904Z,76.10
2023-05-11T19:05:55.347Z,76.10
2023-05-11T19:08:24.908Z,76.13
2023-05-11T19:10:52.796Z,75.74
2023-05-11T19:13:22.982Z,75.34
2023-05-11T19:15:55.488Z,74.95
2023-05-11T19:18:29.636Z,74.72
2023-05-11T19:21:00.734Z,74.46
2023-05-11T19:23:41.904Z,74.38
2023-05-11T19:26:12.017Z,74.48
2023-05-11T19:28:44.191Z,74.52
2023-05-11T19:31:17.294Z,74.95
2023-05-11T19:33:47.241Z,75.91
2023-05-11T19:36:18.621Z,76.14
2023-05-11T19:38:52.396Z,76.04
2023-05-11T19:41:23.782Z,75.99
2023-05-11T19:43:51.605Z,76.23
2023-05-11T19:46:24.689Z,75.96
2023-05-11T19:48:55.419Z,76.29
2023-05-11T19:51:26.786Z,76.15
2023-05-11T19:54:16.804Z,76.70
2023-05-11T19:56:45.216Z,76.57
2023-05-11T19:59:13.369Z,76.61
2023-05-11T20:01:43.883Z,78.09
2023-05-11T20:04:12.787Z,77.82
2023-05-11T20:06:43.028Z,77.87
2023-05-11T20:09:15.799Z,78.29
2023-05-11T20:11:46.135Z,78.46
2023-05-11T20:14:18.156Z,77.92
2023-05-11T20:16:49.990Z,76.54
2023-05-11T20:19:18.336Z,76.48
2023-05-11T20:21:53.130Z,77.05
2023-05-11T20:24:26.442Z,77.64
2023-05-11T20:27:00.024Z,77.28
2023-05-11T20:29:30.599Z,77.04
2023-05-11T20:31:58.588Z,77.10
2023-05-11T20:34:26.990Z,77.48
2023-05-11T20:36:55.185Z,77.25
2023-05-11T20:39:25.916Z,77.52
2023-05-11T20:41:54.826Z,78.00
2023-05-11T20:44:22.969Z,77.81
2023-05-11T20:46:52.908Z,78.03
2023-05-11T20:49:37.628Z,77.46
2023-05-11T20:52:12.896Z,77.43
2023-05-11T20:54:42.614Z,76.87
2023-05-11T20:57:13.352Z,75.67
2023-05-11T21:02:16.372Z,75.59
2023-05-11T21:04:46.756Z,75.29
2023-05-11T21:07:14.539Z,75.18
2023-05-11T21:09:49.916Z,76.18
2023-05-11T21:12:21.950Z,76.29
2023-05-11T21:14:57.051Z,77.16
2023-05-11T21:17:25.864Z,76.74
2023-05-11T21:19:56.480Z,77.21
2023-05-11T21:22:28.443Z,77.74
2023-05-11T21:24:57.797Z,78.60
2023-05-11T21:27:25.895Z,77.84
2023-05-11T21:29:53.747Z,77.51
2023-05-11T21:32:24.666Z,76.54
2023-05-11T21:34:52.656Z,76.76
2023-05-11T21:37:21.204Z,76.94
2023-05-11T21:39:49.576Z,76.78
2023-05-11T21:42:21.096Z,77.02
2023-05-11T21:45:11.782Z,77.85
2023-05-11T21:47:43.499Z,77.13
2023-05-11T21:50:16.104Z,76.93
2023-05-11T21:52:44.231Z,77.61
2023-05-11T21:55:15.113Z,77.26
2023-05-11T21:57:45.084Z,77.66
2023-05-11T22:00:18.927Z,77.98
2023-05-11T22:02:51.278Z,78.71
2023-05-11T22:05:19.938Z,78.37
2023-05-11T22:07:48.257Z,78.23
2023-05-11T22:10:16.661Z,78.00
2023-05-11T22:12:49.392Z,77.69
2023-05-11T22:15:17.615Z,77.86
2023-05-11T22:17:50.794Z,77.49
2023-05-11T22:20:22.062Z,77.53
2023-05-11T22:22:50.115Z,77.72
2023-05-11T22:25:20.333Z,78.29
2023-05-11T22:27:54.102Z,77.73
2023-05-11T22:30:23.247Z,77.69
2023-05-11T22:32:53.101Z,76.62
2023-05-11T22:35:21.217Z,77.36
2023-05-11T22:37:54.385Z,76.33
2023-05-11T22:40:23.017Z,75.90
2023-05-11T22:42:54.357Z,75.28
2023-05-11T22:45:25.531Z,76.58
2023-05-11T22:47:54.331Z,75.74
2023-05-11T22:50:22.557Z,75.82
2023-05-11T22:52:53.556Z,76.31
2023-05-11T22:55:23.312Z,76.86
2023-05-11T22:57:57.198Z,76.95
2023-05-11T23:00:25.713Z,77.09
2023-05-11T23:02:56.647Z,77.36
2023-05-11T23:05:25.465Z,77.32
2023-05-11T23:07:55.982Z,77.86
2023-05-11T23:10:23.922Z,78.26
2023-05-11T23:12:54.345Z,78.93
2023-05-11T23:15:24.591Z,78.86
2023-05-11T23:17:52.929Z,78.51
2023-05-11T23:20:22.840Z,78.35
2023-05-11T23:22:50.923Z,78.35
2023-05-11T23:25:20.915Z,78.45
2023-05-11T23:27:50.161Z,78.34
2023-05-11T23:30:20.616Z,78.29
2023-05-11T23:32:49.189Z,78.30
2023-05-11T23:35:17.718Z,79.06
2023-05-11T23:37:47.848Z,79.92
2023-05-11T23:40:21.622Z,80.56
2023-05-11T23:42:54.474Z,80.10
2023-05-11T23:45:28.052Z,80.20
2023-05-11T23:48:03.086Z,80.11
2023-05-11T23:50:31.349Z,79.67
2023-05-11T23:52:59.952Z,80.35
2023-05-11T23:55:30.962Z,81.24
2023-05-11T23:57:59.321Z,82.34
